sensor_id;sensor_type;location;lat;lon;timestamp;pressure;altitude;pressure_sealevel;temperature;humidity
46211;BME280;52144;48.040;-1.594;2022-12-07T00:01:06;101649.94;;;5.71;90.93
46211;BME280;52144;48.040;-1.594;2022-12-07T00:03:34;101647.28;;;5.74;91.28
46211;BME280;52144;48.040;-1.594;2022-12-07T00:06:03;101631.50;;;5.65;90.88
46211;BME280;52144;48.040;-1.594;2022-12-07T00:08:32;101633.22;;;5.68;92.52
46211;BME280;52144;48.040;-1.594;2022-12-07T00:11:01;101634.97;;;5.70;90.98
46211;BME280;52144;48.040;-1.594;2022-12-07T00:13:29;101627.06;;;5.66;91.56
46211;BME280;52144;48.040;-1.594;2022-12-07T00:16:01;101626.28;;;5.60;92.33
46211;BME280;52144;48.040;-1.594;2022-12-07T00:18:29;101622.75;;;5.60;91.52
46211;BME280;52144;48.040;-1.594;2022-12-07T00:21:00;101624.50;;;5.59;90.80
46211;BME280;52144;48.040;-1.594;2022-12-07T00:23:28;101620.06;;;5.65;90.75
46211;BME280;52144;48.040;-1.594;2022-12-07T00:26:03;101620.13;;;5.58;90.56
46211;BME280;52144;48.040;-1.594;2022-12-07T00:28:30;101613.13;;;5.54;90.13
46211;BME280;52144;48.040;-1.594;2022-12-07T00:31:03;101613.13;;;5.51;89.64
46211;BME280;52144;48.040;-1.594;2022-12-07T00:33:32;101609.75;;;5.37;90.55
46211;BME280;52144;48.040;-1.594;2022-12-07T00:36:00;101605.28;;;5.45;89.83
46211;BME280;52144;48.040;-1.594;2022-12-07T00:38:30;101597.44;;;5.37;90.10
46211;BME280;52144;48.040;-1.594;2022-12-07T00:41:00;101611.59;;;5.32;90.65
46211;BME280;52144;48.040;-1.594;2022-12-07T00:43:29;101602.81;;;5.27;91.02
46211;BME280;52144;48.040;-1.594;2022-12-07T00:45:57;101604.63;;;5.21;91.82
46211;BME280;52144;48.040;-1.594;2022-12-07T00:48:26;101605.38;;;5.37;90.73
46211;BME280;52144;48.040;-1.594;2022-12-07T00:50:54;101612.50;;;5.28;90.15
46211;BME280;52144;48.040;-1.594;2022-12-07T00:53:22;101607.97;;;5.39;90.41
46211;BME280;52144;48.040;-1.594;2022-12-07T00:55:50;101605.38;;;5.37;91.19
46211;BME280;52144;48.040;-1.594;2022-12-07T00:58:19;101608.84;;;5.41;91.60
46211;BME280;52144;48.040;-1.594;2022-12-07T01:00:46;101603.53;;;5.44;89.45
46211;BME280;52144;48.040;-1.594;2022-12-07T01:03:15;101599.38;;;5.18;90.48
46211;BME280;52144;48.040;-1.594;2022-12-07T01:05:51;101610.91;;;5.11;91.56
46211;BME280;52144;48.040;-1.594;2022-12-07T01:08:19;101611.66;;;5.24;89.09
46211;BME280;52144;48.040;-1.594;2022-12-07T01:10:47;101615.91;;;5.40;90.02
46211;BME280;52144;48.040;-1.594;2022-12-07T01:13:16;101614.09;;;5.44;89.66
46211;BME280;52144;48.040;-1.594;2022-12-07T01:15:44;101611.47;;;5.42;89.21
46211;BME280;52144;48.040;-1.594;2022-12-07T01:18:12;101613.31;;;5.33;89.21
46211;BME280;52144;48.040;-1.594;2022-12-07T01:20:40;101605.25;;;5.50;90.44
46211;BME280;52144;48.040;-1.594;2022-12-07T01:23:09;101604.25;;;5.58;88.28
46211;BME280;52144;48.040;-1.594;2022-12-07T01:25:37;101594.13;;;5.15;84.72
46211;BME280;52144;48.040;-1.594;2022-12-07T01:28:04;101598.88;;;4.73;88.12
46211;BME280;52144;48.040;-1.594;2022-12-07T01:30:32;101596.13;;;4.89;89.33
46211;BME280;52144;48.040;-1.594;2022-12-07T01:33:00;101603.09;;;4.96;88.99
46211;BME280;52144;48.040;-1.594;2022-12-07T01:35:28;101602.19;;;5.00;88.89
46211;BME280;52144;48.040;-1.594;2022-12-07T01:37:56;101596.09;;;4.95;89.96
46211;BME280;52144;48.040;-1.594;2022-12-07T01:40:25;101594.25;;;5.01;89.36
46211;BME280;52144;48.040;-1.594;2022-12-07T01:42:52;101594.38;;;4.88;89.39
46211;BME280;52144;48.040;-1.594;2022-12-07T01:45:44;101589.28;;;4.66;92.25
46211;BME280;52144;48.040;-1.594;2022-12-07T01:48:15;101594.38;;;4.88;90.74
46211;BME280;52144;48.040;-1.594;2022-12-07T01:50:48;101590.94;;;4.76;89.89
46211;BME280;52144;48.040;-1.594;2022-12-07T01:53:17;101589.31;;;4.60;90.90
46211;BME280;52144;48.040;-1.594;2022-12-07T01:55:49;101595.38;;;4.71;90.52
46211;BME280;52144;48.040;-1.594;2022-12-07T01:58:20;101584.94;;;4.54;90.86
46211;BME280;52144;48.040;-1.594;2022-12-07T02:00:48;101595.38;;;4.70;91.01
46211;BME280;52144;48.040;-1.594;2022-12-07T02:03:19;101593.56;;;4.78;90.95
46211;BME280;52144;48.040;-1.594;2022-12-07T02:05:50;101599.84;;;4.63;90.72
46211;BME280;52144;48.040;-1.594;2022-12-07T02:08:19;101611.38;;;4.47;91.31
46211;BME280;52144;48.040;-1.594;2022-12-07T02:10:48;101608.88;;;4.25;91.36
46211;BME280;52144;48.040;-1.594;2022-12-07T02:13:18;101617.84;;;3.87;92.41
46211;BME280;52144;48.040;-1.594;2022-12-07T02:16:02;101621.41;;;3.68;95.05
46211;BME280;52144;48.040;-1.594;2022-12-07T02:18:42;101615.22;;;3.84;95.37
46211;BME280;52144;48.040;-1.594;2022-12-07T02:21:16;101614.34;;;3.85;95.88
46211;BME280;52144;48.040;-1.594;2022-12-07T02:24:03;101618.69;;;3.91;94.75
46211;BME280;52144;48.040;-1.594;2022-12-07T02:29:58;101602.03;;;3.87;95.20
46211;BME280;52144;48.040;-1.594;2022-12-07T02:32:36;101614.41;;;3.67;95.34
46211;BME280;52144;48.040;-1.594;2022-12-07T02:35:11;101619.75;;;3.39;97.88
46211;BME280;52144;48.040;-1.594;2022-12-07T02:37:45;101618.88;;;3.40;98.00
46211;BME280;52144;48.040;-1.594;2022-12-07T02:40:18;101621.50;;;3.46;96.63
46211;BME280;52144;48.040;-1.594;2022-12-07T02:42:53;101617.09;;;3.53;96.06
46211;BME280;52144;48.040;-1.594;2022-12-07T02:45:25;101603.78;;;3.80;93.43
46211;BME280;52144;48.040;-1.594;2022-12-07T02:47:56;101612.69;;;3.56;94.29
46211;BME280;52144;48.040;-1.594;2022-12-07T02:50:26;101605.59;;;3.77;93.89
46211;BME280;52144;48.040;-1.594;2022-12-07T02:52:55;101613.44;;;3.85;93.55
46211;BME280;52144;48.040;-1.594;2022-12-07T02:55:26;101615.22;;;3.86;93.98
46211;BME280;52144;48.040;-1.594;2022-12-07T02:58:20;101616.97;;;3.90;93.40
46211;BME280;52144;48.040;-1.594;2022-12-07T03:01:00;101626.66;;;3.80;93.21
46211;BME280;52144;48.040;-1.594;2022-12-07T03:03:33;101625.75;;;3.89;92.60
46211;BME280;52144;48.040;-1.594;2022-12-07T03:06:10;101626.63;;;3.95;91.77
46211;BME280;52144;48.040;-1.594;2022-12-07T03:08:49;101630.16;;;3.80;93.44
46211;BME280;52144;48.040;-1.594;2022-12-07T03:11:23;101631.03;;;3.82;92.41
46211;BME280;52144;48.040;-1.594;2022-12-07T03:13:59;101629.34;;;3.63;94.61
46211;BME280;52144;48.040;-1.594;2022-12-07T03:16:33;101630.16;;;3.82;92.67
46211;BME280;52144;48.040;-1.594;2022-12-07T03:19:05;101620.50;;;3.81;92.70
46211;BME280;52144;48.040;-1.594;2022-12-07T03:21:39;101628.41;;;3.87;92.18
46211;BME280;52144;48.040;-1.594;2022-12-07T03:24:10;101625.75;;;3.87;91.88
46211;BME280;52144;48.040;-1.594;2022-12-07T03:26:42;101621.34;;;3.92;90.86
46211;BME280;52144;48.040;-1.594;2022-12-07T03:29:17;101617.84;;;3.87;90.77
46211;BME280;52144;48.040;-1.594;2022-12-07T03:31:52;101628.44;;;3.72;91.38
46211;BME280;52144;48.040;-1.594;2022-12-07T03:34:27;101614.34;;;3.82;91.75
46211;BME280;52144;48.040;-1.594;2022-12-07T03:37:00;101627.56;;;3.68;92.44
46211;BME280;52144;48.040;-1.594;2022-12-07T03:39:33;101617.03;;;3.73;92.00
46211;BME280;52144;48.040;-1.594;2022-12-07T03:42:05;101622.22;;;3.91;91.37
46211;BME280;52144;48.040;-1.594;2022-12-07T03:44:34;101612.56;;;3.93;90.90
46211;BME280;52144;48.040;-1.594;2022-12-07T03:47:09;101615.13;;;4.07;89.99
46211;BME280;52144;48.040;-1.594;2022-12-07T03:49:42;101621.25;;;4.14;87.61
46211;BME280;52144;48.040;-1.594;2022-12-07T03:52:17;101615.16;;;3.96;86.46
46211;BME280;52144;48.040;-1.594;2022-12-07T03:54:51;101617.84;;;3.87;85.53
46211;BME280;52144;48.040;-1.594;2022-12-07T03:57:22;101614.38;;;3.70;83.65
46211;BME280;52144;48.040;-1.594;2022-12-07T03:59:52;101618.81;;;3.63;83.29
46211;BME280;52144;48.040;-1.594;2022-12-07T04:02:23;101618.81;;;3.55;82.34
46211;BME280;52144;48.040;-1.594;2022-12-07T04:04:51;101627.63;;;3.51;82.38
46211;BME280;52144;48.040;-1.594;2022-12-07T04:07:19;101631.13;;;3.52;83.97
46211;BME280;52144;48.040;-1.594;2022-12-07T04:09:47;101627.59;;;3.64;87.79
46211;BME280;52144;48.040;-1.594;2022-12-07T04:12:15;101623.09;;;3.92;87.03
46211;BME280;52144;48.040;-1.594;2022-12-07T04:14:43;101609.88;;;3.98;85.18
46211;BME280;52144;48.040;-1.594;2022-12-07T04:17:11;101622.31;;;3.67;85.72
46211;BME280;52144;48.040;-1.594;2022-12-07T04:19:40;101618.84;;;3.51;85.58
46211;BME280;52144;48.040;-1.594;2022-12-07T04:22:08;101617.97;;;3.56;86.12
46211;BME280;52144;48.040;-1.594;2022-12-07T04:24:36;101609.19;;;3.48;84.41
46211;BME280;52144;48.040;-1.594;2022-12-07T04:27:04;101624.13;;;3.41;84.05
46211;BME280;52144;48.040;-1.594;2022-12-07T04:29:31;101617.09;;;3.37;83.37
46211;BME280;52144;48.040;-1.594;2022-12-07T04:31:59;101615.31;;;3.52;83.98
46211;BME280;52144;48.040;-1.594;2022-12-07T04:34:27;101610.97;;;3.32;82.66
46211;BME280;52144;48.040;-1.594;2022-12-07T04:36:56;101610.97;;;3.15;85.54
46211;BME280;52144;48.040;-1.594;2022-12-07T04:39:26;101599.59;;;3.10;85.67
46211;BME280;52144;48.040;-1.594;2022-12-07T04:41:55;101591.69;;;3.12;88.41
46211;BME280;52144;48.040;-1.594;2022-12-07T04:44:24;101602.19;;;3.19;87.77
46211;BME280;52144;48.040;-1.594;2022-12-07T04:46:53;101603.97;;;3.14;86.07
46211;BME280;52144;48.040;-1.594;2022-12-07T04:49:21;101597.81;;;3.05;84.87
46211;BME280;52144;48.040;-1.594;2022-12-07T04:51:49;101594.31;;;2.95;86.93
46211;BME280;52144;48.040;-1.594;2022-12-07T04:54:19;101596.97;;;3.04;86.03
46211;BME280;52144;48.040;-1.594;2022-12-07T04:56:47;101603.09;;;3.05;85.17
46211;BME280;52144;48.040;-1.594;2022-12-07T04:59:16;101607.47;;;2.83;82.62
46211;BME280;52144;48.040;-1.594;2022-12-07T05:01:44;101606.59;;;2.93;84.15
46211;BME280;52144;48.040;-1.594;2022-12-07T05:04:12;101618.91;;;2.88;84.55
46211;BME280;52144;48.040;-1.594;2022-12-07T05:06:40;101618.91;;;2.86;83.24
46211;BME280;52144;48.040;-1.594;2022-12-07T05:09:08;101622.41;;;2.96;85.10
46211;BME280;52144;48.040;-1.594;2022-12-07T05:11:37;101609.22;;;2.99;84.48
46211;BME280;52144;48.040;-1.594;2022-12-07T05:14:13;101621.53;;;2.95;85.47
46211;BME280;52144;48.040;-1.594;2022-12-07T05:16:41;101617.13;;;3.11;88.30
46211;BME280;52144;48.040;-1.594;2022-12-07T05:19:10;101621.53;;;3.18;86.23
46211;BME280;52144;48.040;-1.594;2022-12-07T05:21:38;101626.78;;;2.91;86.12
46211;BME280;52144;48.040;-1.594;2022-12-07T05:24:07;101632.94;;;2.65;88.61
46211;BME280;52144;48.040;-1.594;2022-12-07T05:26:37;101627.66;;;2.80;89.98
46211;BME280;52144;48.040;-1.594;2022-12-07T05:29:05;101623.28;;;2.96;89.54
46211;BME280;52144;48.040;-1.594;2022-12-07T05:31:33;101618.00;;;2.89;90.06
46211;BME280;52144;48.040;-1.594;2022-12-07T05:34:01;101614.50;;;2.80;89.31
46211;BME280;52144;48.040;-1.594;2022-12-07T05:36:29;101606.63;;;2.79;90.54
46211;BME280;52144;48.040;-1.594;2022-12-07T05:38:58;101599.59;;;2.90;90.14
46211;BME280;52144;48.040;-1.594;2022-12-07T05:41:26;101594.31;;;3.13;90.16
46211;BME280;52144;48.040;-1.594;2022-12-07T05:44:13;101593.41;;;3.27;86.76
46211;BME280;52144;48.040;-1.594;2022-12-07T05:46:41;101593.44;;;3.16;86.84
46211;BME280;52144;48.040;-1.594;2022-12-07T05:49:09;101595.19;;;3.20;85.90
46211;BME280;52144;48.040;-1.594;2022-12-07T05:51:37;101589.06;;;3.18;85.83
46211;BME280;52144;48.040;-1.594;2022-12-07T05:54:04;101598.69;;;3.13;83.94
46211;BME280;52144;48.040;-1.594;2022-12-07T05:56:32;101591.69;;;2.86;86.25
46211;BME280;52144;48.040;-1.594;2022-12-07T05:59:00;101603.94;;;2.34;89.96
46211;BME280;52144;48.040;-1.594;2022-12-07T06:01:46;101597.81;;;2.55;90.92
46211;BME280;52144;48.040;-1.594;2022-12-07T06:04:14;101589.00;;;2.38;91.26
46211;BME280;52144;48.040;-1.594;2022-12-07T06:06:42;101596.94;;;2.50;91.44
46211;BME280;52144;48.040;-1.594;2022-12-07T06:09:10;101609.16;;;2.24;94.46
46211;BME280;52144;48.040;-1.594;2022-12-07T06:11:38;101614.47;;;2.45;93.00
46211;BME280;52144;48.040;-1.594;2022-12-07T06:14:23;101624.94;;;2.25;93.69
46211;BME280;52144;48.040;-1.594;2022-12-07T06:16:52;101616.16;;;2.17;95.21
46211;BME280;52144;48.040;-1.594;2022-12-07T06:19:21;101632.81;;;2.25;94.19
46211;BME280;52144;48.040;-1.594;2022-12-07T06:21:49;101631.06;;;2.18;95.80
46211;BME280;52144;48.040;-1.594;2022-12-07T06:24:17;101632.84;;;2.33;95.66
46211;BME280;52144;48.040;-1.594;2022-12-07T06:26:45;101636.31;;;2.12;96.12
46211;BME280;52144;48.040;-1.594;2022-12-07T06:29:13;101632.88;;;2.39;96.36
46211;BME280;52144;48.040;-1.594;2022-12-07T06:31:41;101627.53;;;2.08;96.89
46211;BME280;52144;48.040;-1.594;2022-12-07T06:34:13;101625.00;;;2.50;96.19
46211;BME280;52144;48.040;-1.594;2022-12-07T06:36:41;101632.91;;;2.51;94.73
46211;BME280;52144;48.040;-1.594;2022-12-07T06:39:09;101633.75;;;2.39;94.82
46211;BME280;52144;48.040;-1.594;2022-12-07T06:41:38;101637.25;;;2.32;96.89
46211;BME280;52144;48.040;-1.594;2022-12-07T06:44:06;101634.59;;;2.20;97.79
46211;BME280;52144;48.040;-1.594;2022-12-07T06:46:34;101640.66;;;2.07;100.00
46211;BME280;52144;48.040;-1.594;2022-12-07T06:49:03;101639.91;;;2.38;97.88
46211;BME280;52144;48.040;-1.594;2022-12-07T06:51:32;101645.19;;;2.55;96.44
46211;BME280;52144;48.040;-1.594;2022-12-07T06:54:02;101637.28;;;2.52;94.94
46211;BME280;52144;48.040;-1.594;2022-12-07T06:56:29;101627.66;;;2.68;95.87
46211;BME280;52144;48.040;-1.594;2022-12-07T06:58:57;101634.72;;;2.83;95.02
46211;BME280;52144;48.040;-1.594;2022-12-07T07:01:25;101639.06;;;2.83;95.51
46211;BME280;52144;48.040;-1.594;2022-12-07T07:03:53;101625.94;;;2.98;95.06
46211;BME280;52144;48.040;-1.594;2022-12-07T07:06:21;101625.91;;;2.64;95.82
46211;BME280;52144;48.040;-1.594;2022-12-07T07:08:50;101636.41;;;2.53;95.60
46211;BME280;52144;48.040;-1.594;2022-12-07T07:11:18;101645.97;;;2.19;97.33
46211;BME280;52144;48.040;-1.594;2022-12-07T07:13:46;101637.22;;;2.25;99.60
46211;BME280;52144;48.040;-1.594;2022-12-07T07:16:14;101646.03;;;2.40;98.52
46211;BME280;52144;48.040;-1.594;2022-12-07T07:18:42;101639.84;;;2.18;98.08
46211;BME280;52144;48.040;-1.594;2022-12-07T07:21:10;101636.41;;;2.47;97.96
46211;BME280;52144;48.040;-1.594;2022-12-07T07:23:38;101638.13;;;2.33;97.60
46211;BME280;52144;48.040;-1.594;2022-12-07T07:26:07;101637.28;;;2.48;97.20
46211;BME280;52144;48.040;-1.594;2022-12-07T07:28:35;101637.28;;;2.54;98.67
46211;BME280;52144;48.040;-1.594;2022-12-07T07:31:03;101640.69;;;2.19;99.19
46211;BME280;52144;48.040;-1.594;2022-12-07T08:30:00;101658.38;;;3.35;93.60
46211;BME280;52144;48.040;-1.594;2022-12-07T08:32:28;101657.53;;;3.16;94.74
46211;BME280;52144;48.040;-1.594;2022-12-07T08:34:56;101660.13;;;3.07;96.05
46211;BME280;52144;48.040;-1.594;2022-12-07T08:37:24;101663.66;;;2.88;95.93
46211;BME280;52144;48.040;-1.594;2022-12-07T08:39:52;101670.69;;;2.87;98.18
46211;BME280;52144;48.040;-1.594;2022-12-07T08:42:20;101668.06;;;3.09;95.63
46211;BME280;52144;48.040;-1.594;2022-12-07T08:44:53;101665.44;;;3.06;95.75
46211;BME280;52144;48.040;-1.594;2022-12-07T08:47:23;101664.53;;;3.07;96.99
46211;BME280;52144;48.040;-1.594;2022-12-07T08:49:53;101660.13;;;3.07;96.73
46211;BME280;52144;48.040;-1.594;2022-12-07T08:52:21;101668.94;;;3.06;97.29
46211;BME280;52144;48.040;-1.594;2022-12-07T08:54:50;101655.72;;;3.41;97.74
46211;BME280;52144;48.040;-1.594;2022-12-07T08:57:18;101664.50;;;3.53;94.80
46211;BME280;52144;48.040;-1.594;2022-12-07T08:59:45;101660.97;;;3.66;93.46
46211;BME280;52144;48.040;-1.594;2022-12-07T09:02:13;101661.84;;;3.67;93.67
46211;BME280;52144;48.040;-1.594;2022-12-07T09:04:42;101670.63;;;3.67;93.90
46211;BME280;52144;48.040;-1.594;2022-12-07T09:07:10;101673.28;;;3.53;93.39
46211;BME280;52144;48.040;-1.594;2022-12-07T09:09:38;101675.97;;;3.22;94.81
46211;BME280;52144;48.040;-1.594;2022-12-07T09:12:06;101660.13;;;3.41;95.54
46211;BME280;52144;48.040;-1.594;2022-12-07T09:14:34;101668.06;;;3.36;94.17
46211;BME280;52144;48.040;-1.594;2022-12-07T09:17:06;101664.53;;;3.19;97.87
46211;BME280;52144;48.040;-1.594;2022-12-07T09:19:34;101672.44;;;3.27;96.74
46211;BME280;52144;48.040;-1.594;2022-12-07T09:22:04;101670.69;;;3.41;96.26
46211;BME280;52144;48.040;-1.594;2022-12-07T09:24:32;101660.97;;;3.66;94.77
46211;BME280;52144;48.040;-1.594;2022-12-07T09:27:00;101665.41;;;3.41;95.00
46211;BME280;52144;48.040;-1.594;2022-12-07T09:29:28;101667.13;;;3.50;95.88
46211;BME280;52144;48.040;-1.594;2022-12-07T09:31:56;101666.28;;;3.29;96.64
46211;BME280;52144;48.040;-1.594;2022-12-07T09:34:24;101667.16;;;3.54;96.82
46211;BME280;52144;48.040;-1.594;2022-12-07T09:36:52;101655.66;;;3.83;95.73
46211;BME280;52144;48.040;-1.594;2022-12-07T09:39:22;101653.03;;;3.74;95.51
46211;BME280;52144;48.040;-1.594;2022-12-07T09:41:49;101663.63;;;3.48;95.55
46211;BME280;52144;48.040;-1.594;2022-12-07T09:44:21;101662.72;;;3.64;97.44
46211;BME280;52144;48.040;-1.594;2022-12-07T09:46:51;101655.66;;;3.89;97.55
46211;BME280;52144;48.040;-1.594;2022-12-07T09:49:21;101644.13;;;4.12;95.10
46211;BME280;52144;48.040;-1.594;2022-12-07T09:52:00;101643.22;;;4.14;95.10
46211;BME280;52144;48.040;-1.594;2022-12-07T09:54:30;101645.88;;;4.16;92.49
46211;BME280;52144;48.040;-1.594;2022-12-07T09:56:58;101649.34;;;4.21;93.40
46211;BME280;52144;48.040;-1.594;2022-12-07T09:59:27;101646.66;;;4.30;91.28
46211;BME280;52144;48.040;-1.594;2022-12-07T10:02:23;101644.06;;;4.26;94.35
46211;BME280;52144;48.040;-1.594;2022-12-07T10:04:52;101649.25;;;4.39;94.03
46211;BME280;52144;48.040;-1.594;2022-12-07T10:07:20;101636.91;;;4.41;93.74
46211;BME280;52144;48.040;-1.594;2022-12-07T10:09:49;101643.06;;;4.47;94.01
46211;BME280;52144;48.040;-1.594;2022-12-07T10:12:17;101639.59;;;4.38;91.95
46211;BME280;52144;48.040;-1.594;2022-12-07T10:14:54;101636.00;;;4.47;92.76
46211;BME280;52144;48.040;-1.594;2022-12-07T10:17:35;101644.84;;;4.41;92.50
46211;BME280;52144;48.040;-1.594;2022-12-07T10:20:16;101641.38;;;4.33;92.27
46211;BME280;52144;48.040;-1.594;2022-12-07T10:23:04;101652.78;;;4.35;91.85
46211;BME280;52144;48.040;-1.594;2022-12-07T10:25:35;101648.63;;;3.82;95.30
46211;BME280;52144;48.040;-1.594;2022-12-07T10:28:14;101651.97;;;4.24;96.33
46211;BME280;52144;48.040;-1.594;2022-12-07T10:30:54;101653.72;;;4.25;94.96
46211;BME280;52144;48.040;-1.594;2022-12-07T10:33:35;101651.16;;;4.07;95.92
46211;BME280;52144;48.040;-1.594;2022-12-07T10:36:18;101654.72;;;3.98;97.19
46211;BME280;52144;48.040;-1.594;2022-12-07T10:38:48;101655.59;;;4.01;97.88
46211;BME280;52144;48.040;-1.594;2022-12-07T10:41:17;101647.59;;;4.17;95.54
46211;BME280;52144;48.040;-1.594;2022-12-07T10:43:48;101649.28;;;4.33;95.24
46211;BME280;52144;48.040;-1.594;2022-12-07T10:46:43;101634.19;;;4.57;94.87
46211;BME280;52144;48.040;-1.594;2022-12-07T10:52:27;101627.22;;;4.43;94.78
46211;BME280;52144;48.040;-1.594;2022-12-07T10:55:11;101620.88;;;4.75;94.39
46211;BME280;52144;48.040;-1.594;2022-12-07T10:57:51;101622.59;;;4.79;94.22
46211;BME280;52144;48.040;-1.594;2022-12-07T11:00:24;101618.38;;;4.57;94.61
46211;BME280;52144;48.040;-1.594;2022-12-07T11:03:19;101616.81;;;4.19;96.49
46211;BME280;52144;48.040;-1.594;2022-12-07T11:05:54;101608.72;;;4.54;96.48
46211;BME280;52144;48.040;-1.594;2022-12-07T11:08:37;101608.53;;;4.77;96.13
46211;BME280;52144;48.040;-1.594;2022-12-07T11:11:13;101604.78;;;5.06;93.82
46211;BME280;52144;48.040;-1.594;2022-12-07T11:13:48;101607.66;;;4.77;94.02
46211;BME280;52144;48.040;-1.594;2022-12-07T11:16:24;101609.53;;;4.62;94.05
46211;BME280;52144;48.040;-1.594;2022-12-07T11:19:10;101608.66;;;4.59;96.79
46211;BME280;52144;48.040;-1.594;2022-12-07T11:21:48;101606.84;;;4.67;94.22
46211;BME280;52144;48.040;-1.594;2022-12-07T11:24:20;101608.38;;;4.96;92.73
46211;BME280;52144;48.040;-1.594;2022-12-07T11:27:01;101595.78;;;5.26;90.51
46211;BME280;52144;48.040;-1.594;2022-12-07T11:29:48;101608.22;;;5.14;91.45
46211;BME280;52144;48.040;-1.594;2022-12-07T11:32:22;101595.13;;;5.02;90.63
46211;BME280;52144;48.040;-1.594;2022-12-07T11:35:04;101593.44;;;4.95;93.20
46211;BME280;52144;48.040;-1.594;2022-12-07T11:37:35;101592.25;;;5.27;91.63
46211;BME280;52144;48.040;-1.594;2022-12-07T11:40:15;101584.81;;;5.62;91.47
46211;BME280;52144;48.040;-1.594;2022-12-07T11:42:46;101576.31;;;5.33;92.92
46211;BME280;52144;48.040;-1.594;2022-12-07T11:45:23;101576.94;;;5.58;90.23
46211;BME280;52144;48.040;-1.594;2022-12-07T11:47:55;101574.13;;;5.72;90.18
46211;BME280;52144;48.040;-1.594;2022-12-07T11:50:30;101572.41;;;5.68;90.72
46211;BME280;52144;48.040;-1.594;2022-12-07T11:53:03;101576.53;;;5.92;88.07
46211;BME280;52144;48.040;-1.594;2022-12-07T11:55:42;101575.66;;;5.88;87.86
46211;BME280;52144;48.040;-1.594;2022-12-07T11:58:20;101571.13;;;6.02;87.73
46211;BME280;52144;48.040;-1.594;2022-12-07T12:01:07;101567.69;;;5.93;85.24
46211;BME280;52144;48.040;-1.594;2022-12-07T12:03:38;101561.75;;;5.74;86.34
46211;BME280;52144;48.040;-1.594;2022-12-07T12:06:13;101556.53;;;5.68;88.34
46211;BME280;52144;48.040;-1.594;2022-12-07T12:08:44;101550.81;;;5.30;92.41
46211;BME280;52144;48.040;-1.594;2022-12-07T12:11:49;101544.16;;;5.73;89.95
46211;BME280;52144;48.040;-1.594;2022-12-07T12:14:48;101542.44;;;5.69;90.29
46211;BME280;52144;48.040;-1.594;2022-12-07T12:17:35;101528.97;;;5.87;88.21
46211;BME280;52144;48.040;-1.594;2022-12-07T12:20:17;101529.50;;;6.14;88.64
46211;BME280;52144;48.040;-1.594;2022-12-07T12:22:49;101523.16;;;6.27;88.83
46211;BME280;52144;48.040;-1.594;2022-12-07T12:25:21;101525.72;;;6.33;88.31
46211;BME280;52144;48.040;-1.594;2022-12-07T12:27:52;101522.03;;;6.42;87.91
46211;BME280;52144;48.040;-1.594;2022-12-07T12:30:30;101524.59;;;6.48;88.39
46211;BME280;52144;48.040;-1.594;2022-12-07T12:33:13;101524.13;;;6.20;89.13
46211;BME280;52144;48.040;-1.594;2022-12-07T12:35:42;101512.88;;;6.06;89.88
46211;BME280;52144;48.040;-1.594;2022-12-07T12:38:29;101516.22;;;5.50;92.93
46211;BME280;52144;48.040;-1.594;2022-12-07T12:40:57;101520.09;;;5.18;94.61
46211;BME280;52144;48.040;-1.594;2022-12-07T12:43:46;101520.53;;;5.57;93.52
46211;BME280;52144;48.040;-1.594;2022-12-07T12:46:48;101507.91;;;5.78;91.70
46211;BME280;52144;48.040;-1.594;2022-12-07T12:49:39;101505.56;;;5.56;94.17
46211;BME280;52144;48.040;-1.594;2022-12-07T12:58:36;101492.13;;;5.75;93.56
46211;BME280;52144;48.040;-1.594;2022-12-07T13:04:47;101477.34;;;5.57;94.58
46211;BME280;52144;48.040;-1.594;2022-12-07T13:07:49;101477.44;;;5.52;94.31
46211;BME280;52144;48.040;-1.594;2022-12-07T13:10:25;101475.56;;;5.60;93.61
46211;BME280;52144;48.040;-1.594;2022-12-07T13:12:58;101472.31;;;5.38;94.48
46211;BME280;52144;48.040;-1.594;2022-12-07T13:15:34;101475.63;;;5.54;96.79
46211;BME280;52144;48.040;-1.594;2022-12-07T13:20:53;101473.34;;;5.95;93.72
46211;BME280;52144;48.040;-1.594;2022-12-07T13:23:27;101462.56;;;6.09;93.33
46211;BME280;52144;48.040;-1.594;2022-12-07T13:26:04;101454.81;;;6.51;90.44
46211;BME280;52144;48.040;-1.594;2022-12-07T13:28:44;101448.41;;;6.64;90.68
46211;BME280;52144;48.040;-1.594;2022-12-07T13:31:31;101448.69;;;6.47;89.89
46211;BME280;52144;48.040;-1.594;2022-12-07T13:34:00;101449.25;;;6.66;91.35
46211;BME280;52144;48.040;-1.594;2022-12-07T13:36:32;101444.38;;;6.91;89.44
46211;BME280;52144;48.040;-1.594;2022-12-07T13:39:16;101442.50;;;7.40;89.06
46211;BME280;52144;48.040;-1.594;2022-12-07T13:41:50;101433.31;;;7.56;85.88
46211;BME280;52144;48.040;-1.594;2022-12-07T13:44:18;101420.06;;;7.14;86.31
46211;BME280;52144;48.040;-1.594;2022-12-07T13:46:55;101417.41;;;6.69;90.30
46211;BME280;52144;48.040;-1.594;2022-12-07T13:49:26;101424.78;;;6.52;90.43
46211;BME280;52144;48.040;-1.594;2022-12-07T13:52:13;101422.28;;;6.42;90.64
46211;BME280;52144;48.040;-1.594;2022-12-07T13:54:47;101417.34;;;6.22;93.73
46211;BME280;52144;48.040;-1.594;2022-12-07T13:57:16;101410.50;;;6.62;91.22
46211;BME280;52144;48.040;-1.594;2022-12-07T13:59:45;101410.59;;;7.02;89.34
46211;BME280;52144;48.040;-1.594;2022-12-07T14:02:25;101406.31;;;7.39;86.29
46211;BME280;52144;48.040;-1.594;2022-12-07T14:05:08;101391.00;;;6.66;87.79
46211;BME280;52144;48.040;-1.594;2022-12-07T14:07:49;101390.75;;;6.78;89.69
46211;BME280;52144;48.040;-1.594;2022-12-07T14:10:24;101392.59;;;6.73;90.11
46211;BME280;52144;48.040;-1.594;2022-12-07T14:12:53;101397.66;;;6.86;89.30
46211;BME280;52144;48.040;-1.594;2022-12-07T14:15:23;101389.94;;;6.73;90.55
46211;BME280;52144;48.040;-1.594;2022-12-07T14:17:52;101381.78;;;7.28;89.27
46211;BME280;52144;48.040;-1.594;2022-12-07T14:20:32;101384.88;;;7.06;89.32
46211;BME280;52144;48.040;-1.594;2022-12-07T14:23:02;101384.81;;;7.11;89.53
46211;BME280;52144;48.040;-1.594;2022-12-07T14:25:45;101380.09;;;7.25;89.42
46211;BME280;52144;48.040;-1.594;2022-12-07T14:28:26;101384.44;;;7.28;89.23
46211;BME280;52144;48.040;-1.594;2022-12-07T14:30:55;101380.75;;;7.35;89.74
46211;BME280;52144;48.040;-1.594;2022-12-07T14:33:23;101371.56;;;7.11;90.33